createdAt,value
2023-01-19T00:00:21.886Z,50.76
2023-01-19T00:02:48.661Z,50.70
2023-01-19T00:05:15.331Z,51.17
2023-01-19T00:07:42.079Z,50.06
2023-01-19T00:10:10.064Z,50.31
2023-01-19T00:12:36.614Z,50.16
2023-01-19T00:15:03.477Z,50.97
2023-01-19T00:17:30.223Z,50.61
2023-01-19T00:19:56.748Z,50.80
2023-01-19T00:22:23.334Z,50.19
2023-01-19T00:24:50.471Z,50.76
2023-01-19T00:27:17.071Z,49.91
2023-01-19T00:29:43.617Z,50.72
2023-01-19T00:32:10.291Z,50.36
2023-01-19T00:34:36.901Z,50.25
2023-01-19T00:37:04.213Z,49.65
2023-01-19T00:39:30.948Z,49.75
2023-01-19T00:42:16.082Z,50.21
2023-01-19T00:44:42.699Z,49.96
2023-01-19T00:47:09.698Z,50.35
2023-01-19T00:49:36.305Z,50.11
2023-01-19T00:52:03.035Z,49.89
2023-01-19T00:54:29.555Z,50.14
2023-01-19T00:56:56.300Z,50.13
2023-01-19T00:59:22.910Z,50.07
2023-01-19T01:01:49.634Z,50.00
2023-01-19T01:04:16.311Z,50.04
2023-01-19T01:06:42.905Z,50.13
2023-01-19T01:09:12.142Z,50.55
2023-01-19T01:11:42.744Z,50.52
2023-01-19T01:14:13.147Z,50.06
2023-01-19T01:16:40.171Z,50.56
2023-01-19T01:19:06.826Z,50.20
2023-01-19T01:21:34.626Z,50.03
2023-01-19T01:24:01.755Z,50.11
2023-01-19T01:26:28.362Z,50.96
2023-01-19T01:28:54.888Z,50.72
2023-01-19T01:31:21.479Z,50.68
2023-01-19T01:33:48.011Z,51.15
2023-01-19T01:36:14.652Z,51.37
2023-01-19T01:38:41.791Z,50.56
2023-01-19T01:41:09.025Z,50.54
2023-01-19T01:43:50.869Z,51.40
2023-01-19T01:46:18.195Z,50.61
2023-01-19T01:48:50.428Z,50.93
2023-01-19T01:51:28.991Z,51.02
2023-01-19T01:54:04.855Z,50.94
2023-01-19T01:56:35.696Z,50.91
2023-01-19T01:59:07.605Z,50.67
2023-01-19T02:01:53.939Z,50.83
2023-01-19T02:04:21.157Z,51.15
2023-01-19T02:07:07.040Z,51.77
2023-01-19T02:09:54.975Z,51.03
2023-01-19T02:12:41.232Z,51.57
2023-01-19T02:15:18.987Z,50.38
2023-01-19T02:17:46.458Z,50.88
2023-01-19T02:20:13.811Z,50.74
2023-01-19T02:22:51.254Z,50.82
2023-01-19T02:25:19.487Z,50.32
2023-01-19T02:27:46.932Z,50.76
2023-01-19T02:30:14.279Z,50.61
2023-01-19T02:32:40.853Z,50.61
2023-01-19T02:35:07.646Z,50.65
2023-01-19T02:37:39.988Z,50.62
2023-01-19T02:40:12.367Z,50.61
2023-01-19T02:42:45.673Z,50.64
2023-01-19T02:45:19.897Z,50.49
2023-01-19T02:47:49.243Z,51.67
2023-01-19T02:50:38.585Z,50.65
2023-01-19T02:53:11.583Z,50.74
2023-01-19T02:55:40.250Z,50.88
2023-01-19T02:58:31.633Z,50.80
2023-01-19T03:01:29.406Z,50.37
2023-01-19T03:04:04.311Z,50.98
2023-01-19T03:06:47.018Z,50.75
2023-01-19T03:09:19.433Z,50.67
2023-01-19T03:11:54.257Z,51.00
2023-01-19T03:14:26.677Z,50.78
2023-01-19T03:17:01.787Z,50.81
2023-01-19T03:19:37.750Z,51.02
2023-01-19T03:22:09.668Z,50.91
2023-01-19T03:24:40.288Z,51.36
2023-01-19T03:27:25.428Z,51.12
2023-01-19T03:29:57.683Z,51.01
2023-01-19T03:32:31.418Z,51.05
2023-01-19T03:35:03.239Z,51.09
2023-01-19T03:37:31.730Z,50.99
2023-01-19T03:39:58.306Z,51.60
2023-01-19T03:42:27.034Z,51.62
2023-01-19T03:44:56.465Z,51.05
2023-01-19T03:47:24.727Z,51.04
2023-01-19T03:49:53.151Z,51.40
2023-01-19T03:52:28.324Z,51.39
2023-01-19T03:54:55.249Z,51.26
2023-01-19T03:57:22.142Z,51.70
2023-01-19T03:59:49.463Z,51.72
2023-01-19T04:02:16.094Z,51.44
2023-01-19T04:04:42.736Z,51.63
2023-01-19T04:07:10.936Z,51.43
2023-01-19T04:09:37.569Z,51.14
2023-01-19T04:12:04.290Z,50.99
2023-01-19T04:14:30.828Z,50.99
2023-01-19T04:16:57.388Z,51.40
2023-01-19T04:19:24.992Z,51.04
2023-01-19T04:21:51.786Z,51.05
2023-01-19T04:24:18.430Z,51.49
2023-01-19T04:26:45.012Z,51.60
2023-01-19T04:29:11.585Z,51.02
2023-01-19T04:31:38.207Z,51.49
2023-01-19T04:34:04.729Z,51.45
2023-01-19T04:36:31.348Z,51.17
2023-01-19T04:38:57.910Z,51.32
2023-01-19T04:41:24.487Z,50.61
2023-01-19T04:43:51.040Z,50.74
2023-01-19T04:46:17.634Z,50.99
2023-01-19T04:48:44.250Z,50.84
2023-01-19T04:51:10.780Z,51.37
2023-01-19T04:53:37.392Z,51.11
2023-01-19T04:56:04.085Z,51.39
2023-01-19T04:58:30.668Z,51.37
2023-01-19T05:00:57.264Z,50.84
2023-01-19T05:03:25.676Z,51.06
2023-01-19T05:05:53.330Z,50.48
2023-01-19T05:08:19.908Z,50.91
2023-01-19T05:10:47.949Z,50.97
2023-01-19T05:13:14.472Z,50.65
2023-01-19T05:15:41.032Z,50.75
2023-01-19T05:18:07.563Z,50.77
2023-01-19T05:20:34.105Z,50.78
2023-01-19T05:23:01.083Z,50.94
2023-01-19T05:25:27.853Z,51.31
2023-01-19T05:27:54.536Z,51.34
2023-01-19T05:30:21.309Z,51.26
2023-01-19T05:32:47.818Z,51.26
2023-01-19T05:35:16.664Z,50.96
2023-01-19T05:37:44.772Z,50.63
2023-01-19T05:40:11.738Z,51.07
2023-01-19T05:42:38.502Z,51.06
2023-01-19T05:45:05.717Z,51.24
2023-01-19T05:47:32.322Z,50.90
2023-01-19T05:49:58.972Z,51.18
2023-01-19T05:52:25.517Z,51.84
2023-01-19T05:54:53.036Z,51.52
2023-01-19T05:57:19.534Z,52.05
2023-01-19T05:59:46.298Z,51.46
2023-01-19T06:02:12.963Z,51.62
2023-01-19T06:04:39.588Z,51.58
2023-01-19T06:07:06.978Z,51.83
2023-01-19T06:09:33.657Z,51.12
2023-01-19T06:12:00.255Z,50.74
2023-01-19T06:14:27.002Z,50.97
2023-01-19T06:16:53.556Z,51.46
2023-01-19T06:19:20.127Z,51.05
2023-01-19T06:21:49.771Z,50.93
2023-01-19T06:24:16.485Z,51.30
2023-01-19T06:26:43.722Z,51.36
2023-01-19T06:29:12.092Z,51.23
2023-01-19T06:31:38.647Z,50.87
2023-01-19T06:34:05.258Z,51.30
2023-01-19T06:36:31.939Z,51.33
2023-01-19T06:38:58.887Z,50.85
2023-01-19T06:41:25.390Z,50.61
2023-01-19T06:43:51.915Z,50.47
2023-01-19T06:46:18.491Z,50.31
2023-01-19T06:48:45.079Z,50.97
2023-01-19T06:51:11.581Z,51.18
2023-01-19T06:53:38.967Z,50.75
2023-01-19T06:56:06.685Z,51.46
2023-01-19T06:58:34.780Z,50.98
2023-01-19T07:01:03.984Z,50.42
2023-01-19T07:03:30.922Z,49.97
2023-01-19T07:05:57.599Z,50.04
2023-01-19T07:08:24.251Z,50.00
2023-01-19T07:11:25.420Z,50.28
2023-01-19T07:13:38.657Z,50.46
2023-01-19T07:16:11.886Z,50.53
2023-01-19T07:18:39.910Z,50.21
2023-01-19T07:21:07.190Z,50.58
2023-01-19T07:23:34.769Z,50.33
2023-01-19T07:26:01.993Z,50.20
2023-01-19T07:28:29.633Z,50.23
2023-01-19T07:30:56.666Z,50.40
2023-01-19T07:33:25.042Z,50.07
2023-01-19T07:35:53.179Z,49.74
2023-01-19T07:38:20.341Z,49.87
2023-01-19T07:40:46.993Z,49.97
2023-01-19T07:43:14.035Z,49.10
2023-01-19T07:45:40.763Z,49.26
2023-01-19T07:48:07.585Z,49.26
2023-01-19T07:50:34.117Z,48.88
2023-01-19T07:53:08.857Z,48.44
2023-01-19T07:55:35.749Z,48.57
2023-01-19T07:58:06.436Z,48.62
2023-01-19T08:00:35.236Z,48.14
2023-01-19T08:03:04.034Z,47.65
2023-01-19T08:05:32.044Z,48.00
2023-01-19T08:07:58.994Z,47.94
2023-01-19T08:10:26.980Z,47.51
2023-01-19T08:12:54.376Z,47.42
2023-01-19T08:15:23.907Z,47.34
2023-01-19T08:17:58.097Z,47.09
2023-01-19T08:20:25.641Z,47.08
2023-01-19T08:22:59.727Z,46.89
2023-01-19T08:25:34.771Z,47.36
2023-01-19T08:28:02.181Z,47.38
2023-01-19T08:30:28.897Z,47.03
2023-01-19T08:33:03.797Z,46.79
2023-01-19T08:35:31.447Z,46.42
2023-01-19T08:38:01.152Z,46.48
2023-01-19T08:40:35.060Z,45.70
2023-01-19T08:43:07.849Z,45.55
2023-01-19T08:45:41.328Z,45.66
2023-01-19T08:48:08.248Z,46.02
2023-01-19T08:50:35.043Z,46.38
2023-01-19T08:53:03.601Z,45.95
2023-01-19T08:55:30.589Z,46.21
2023-01-19T08:57:58.088Z,46.82
2023-01-19T09:00:25.374Z,45.91
2023-01-19T09:02:51.922Z,46.02
2023-01-19T09:05:18.660Z,46.17
2023-01-19T09:07:47.873Z,45.00
2023-01-19T09:10:15.530Z,45.20
2023-01-19T09:12:42.158Z,45.05
2023-01-19T09:15:10.644Z,45.06
2023-01-19T09:17:37.396Z,44.53
2023-01-19T09:20:05.853Z,44.37
2023-01-19T09:22:33.246Z,45.11
2023-01-19T09:25:00.334Z,44.47
2023-01-19T09:27:26.923Z,44.32
2023-01-19T09:29:54.021Z,44.22
2023-01-19T09:32:21.577Z,44.07
2023-01-19T09:34:48.258Z,43.90
2023-01-19T09:37:16.095Z,43.80
2023-01-19T09:39:42.739Z,43.84
2023-01-19T09:42:21.804Z,43.15
2023-01-19T09:44:50.447Z,42.87
2023-01-19T09:47:21.099Z,42.83
2023-01-19T09:49:54.960Z,42.84
2023-01-19T09:52:22.457Z,41.87
2023-01-19T09:54:52.829Z,43.49
2023-01-19T09:57:21.316Z,43.36
2023-01-19T09:59:50.774Z,43.35
2023-01-19T10:02:32.803Z,42.48
2023-01-19T10:05:19.379Z,42.37
2023-01-19T10:07:58.303Z,41.64
2023-01-19T10:10:27.264Z,41.31
2023-01-19T10:13:10.539Z,41.08
2023-01-19T10:15:45.212Z,40.51
2023-01-19T10:18:13.552Z,40.71
2023-01-19T10:21:04.564Z,40.28
2023-01-19T10:23:41.075Z,40.04
2023-01-19T10:26:36.308Z,39.81
2023-01-19T10:29:14.563Z,39.92
2023-01-19T10:31:44.763Z,40.09
2023-01-19T10:34:20.413Z,40.39
2023-01-19T10:36:52.869Z,39.54
2023-01-19T10:39:19.894Z,38.63
2023-01-19T10:41:50.017Z,39.58
2023-01-19T10:44:28.497Z,39.22
2023-01-19T10:46:59.263Z,39.81
2023-01-19T10:49:29.935Z,37.49
2023-01-19T10:51:58.469Z,37.01
2023-01-19T10:54:27.606Z,37.28
2023-01-19T10:56:57.398Z,37.04
2023-01-19T10:59:52.280Z,37.33
2023-01-19T11:02:27.697Z,37.30
2023-01-19T11:04:57.497Z,37.11
2023-01-19T11:07:26.919Z,35.92
2023-01-19T11:10:11.866Z,34.05
2023-01-19T11:13:04.100Z,33.32
2023-01-19T11:15:41.515Z,32.27
2023-01-19T11:18:08.347Z,33.15
2023-01-19T11:20:52.744Z,31.93
2023-01-19T11:23:41.935Z,32.22
2023-01-19T11:26:15.734Z,32.30
2023-01-19T11:28:51.315Z,32.59
2023-01-19T11:31:29.334Z,33.64
2023-01-19T11:34:05.995Z,33.19
2023-01-19T11:36:35.749Z,33.75
2023-01-19T11:39:30.121Z,32.93
2023-01-19T11:42:06.267Z,34.38
2023-01-19T11:44:36.411Z,34.74
2023-01-19T11:47:06.218Z,33.82
2023-01-19T11:49:58.290Z,35.10
2023-01-19T11:52:34.657Z,33.98
2023-01-19T11:55:21.395Z,32.86
2023-01-19T11:57:53.432Z,32.80
2023-01-19T12:00:31.214Z,32.49
2023-01-19T12:03:19.764Z,33.36
2023-01-19T12:05:51.091Z,33.19
2023-01-19T12:08:30.425Z,33.44
2023-01-19T12:10:59.844Z,33.66
2023-01-19T12:13:30.236Z,34.68
2023-01-19T12:16:04.589Z,33.45
2023-01-19T12:18:38.661Z,33.32
2023-01-19T12:21:05.386Z,34.28
2023-01-19T12:23:50.961Z,35.19
2023-01-19T12:26:29.587Z,35.11
2023-01-19T12:29:18.634Z,34.84
2023-01-19T12:31:45.632Z,35.28
2023-01-19T12:34:31.352Z,34.95
2023-01-19T12:37:03.881Z,36.78
2023-01-19T12:39:32.905Z,36.09
2023-01-19T12:42:15.101Z,35.91
2023-01-19T12:44:42.876Z,35.92
2023-01-19T12:47:15.573Z,36.02
2023-01-19T12:49:48.130Z,36.70
2023-01-19T12:52:40.411Z,35.81
2023-01-19T12:55:12.972Z,35.14
2023-01-19T12:57:41.738Z,35.39
2023-01-19T13:00:30.162Z,35.37
2023-01-19T13:02:59.381Z,35.46
2023-01-19T13:05:25.999Z,36.25
2023-01-19T13:08:01.663Z,34.64
2023-01-19T13:10:50.286Z,35.22
2023-01-19T13:13:19.525Z,34.56
2023-01-19T13:15:46.347Z,35.73
2023-01-19T13:18:29.482Z,34.82
2023-01-19T13:21:03.369Z,34.09
2023-01-19T13:23:56.324Z,34.36
2023-01-19T13:26:26.197Z,34.36
2023-01-19T13:28:57.071Z,33.94
2023-01-19T13:31:25.460Z,34.62
2023-01-19T13:33:55.110Z,33.03
2023-01-19T13:36:31.063Z,33.18
2023-01-19T13:39:01.597Z,33.95
2023-01-19T13:41:32.969Z,34.41
2023-01-19T13:44:09.361Z,35.21
2023-01-19T13:46:38.479Z,35.21
2023-01-19T13:49:17.113Z,35.05
2023-01-19T13:51:43.633Z,35.57
2023-01-19T13:54:16.821Z,34.90
2023-01-19T13:56:52.428Z,35.15
2023-01-19T13:59:19.025Z,35.44
2023-01-19T14:01:46.672Z,34.41
2023-01-19T14:04:31.263Z,34.78
2023-01-19T14:07:02.173Z,34.21
2023-01-19T14:09:28.791Z,35.55
2023-01-19T14:12:25.644Z,34.98
2023-01-19T14:14:52.388Z,33.84
2023-01-19T14:17:28.380Z,34.36
2023-01-19T14:20:01.117Z,34.28
2023-01-19T14:22:42.795Z,34.26
2023-01-19T14:25:29.450Z,34.41
2023-01-19T14:28:39.446Z,35.44
2023-01-19T14:31:24.865Z,35.03
2023-01-19T14:33:55.546Z,34.72
2023-01-19T14:36:34.500Z,34.80
2023-01-19T14:39:02.263Z,34.83
2023-01-19T14:41:39.800Z,35.64
2023-01-19T14:44:11.507Z,35.71
2023-01-19T14:46:44.119Z,35.93
2023-01-19T14:49:20.385Z,35.40
2023-01-19T14:51:48.932Z,36.01
2023-01-19T14:54:19.186Z,35.61
2023-01-19T14:56:45.840Z,36.10
2023-01-19T14:59:12.588Z,36.13
2023-01-19T15:01:39.420Z,36.40
2023-01-19T15:04:06.075Z,36.18
2023-01-19T15:06:34.620Z,36.17
2023-01-19T15:09:01.182Z,35.92
2023-01-19T15:11:32.574Z,36.38
2023-01-19T15:13:59.528Z,36.12
2023-01-19T15:16:27.636Z,36.03
2023-01-19T15:18:54.620Z,36.27
2023-01-19T15:21:26.636Z,36.24
2023-01-19T15:23:54.524Z,36.17
2023-01-19T15:26:23.830Z,36.41
2023-01-19T15:28:50.708Z,36.85
2023-01-19T15:31:25.724Z,36.44
2023-01-19T15:33:52.457Z,36.93
2023-01-19T15:36:24.096Z,36.97
2023-01-19T15:38:51.048Z,36.40
2023-01-19T15:41:28.597Z,36.55
2023-01-19T15:43:55.729Z,37.37
2023-01-19T15:46:23.611Z,37.88
2023-01-19T15:48:50.662Z,37.40
2023-01-19T15:51:20.207Z,37.63
2023-01-19T15:53:47.585Z,37.11
2023-01-19T15:56:32.230Z,36.68
2023-01-19T15:58:59.140Z,37.01
2023-01-19T16:01:32.172Z,37.22
2023-01-19T16:04:01.376Z,37.08
2023-01-19T16:06:29.199Z,37.37
2023-01-19T16:08:59.674Z,37.10
2023-01-19T16:11:28.900Z,37.36
2023-01-19T16:13:55.552Z,37.26
2023-01-19T16:16:23.717Z,37.75
2023-01-19T16:18:50.642Z,37.62
2023-01-19T16:21:17.434Z,38.11
2023-01-19T16:23:44.026Z,37.73
2023-01-19T16:26:30.339Z,37.89
2023-01-19T16:29:09.761Z,38.04
2023-01-19T16:31:37.652Z,37.86
2023-01-19T16:34:04.240Z,37.53
2023-01-19T16:36:32.985Z,37.41
2023-01-19T16:39:01.375Z,37.46
2023-01-19T16:41:28.129Z,37.47
2023-01-19T16:43:56.463Z,37.77
2023-01-19T16:46:32.463Z,37.50
2023-01-19T16:49:01.185Z,37.18
2023-01-19T16:51:27.946Z,37.31
2023-01-19T16:53:54.539Z,37.35
2023-01-19T16:56:21.166Z,37.26
2023-01-19T16:58:47.704Z,38.15
2023-01-19T17:01:20.351Z,38.33
2023-01-19T17:03:47.849Z,38.66
2023-01-19T17:06:18.086Z,38.76
2023-01-19T17:08:45.055Z,39.32
2023-01-19T17:11:20.757Z,38.50
2023-01-19T17:13:48.799Z,37.73
2023-01-19T17:16:15.566Z,38.06
2023-01-19T17:18:42.210Z,37.86
2023-01-19T17:21:10.169Z,38.39
2023-01-19T17:23:37.456Z,38.50
2023-01-19T17:26:04.985Z,38.46
2023-01-19T17:28:31.553Z,37.44
2023-01-19T17:31:07.138Z,37.62
2023-01-19T17:33:35.127Z,37.64
2023-01-19T17:36:09.801Z,37.71
2023-01-19T17:38:36.920Z,37.74
2023-01-19T17:41:18.606Z,37.77
2023-01-19T17:43:45.995Z,38.04
2023-01-19T17:46:13.223Z,37.25
2023-01-19T17:48:39.993Z,37.68
2023-01-19T17:51:09.517Z,37.81
2023-01-19T17:53:37.172Z,37.95
2023-01-19T17:56:05.285Z,37.70
2023-01-19T17:58:32.137Z,37.59
2023-01-19T18:00:58.947Z,38.39
2023-01-19T18:03:25.562Z,37.48
2023-01-19T18:05:55.732Z,37.47
2023-01-19T18:08:22.262Z,37.73
2023-01-19T18:10:56.331Z,37.70
2023-01-19T18:13:23.650Z,37.83
2023-01-19T18:15:50.343Z,38.11
2023-01-19T18:18:17.859Z,37.88
2023-01-19T18:20:44.669Z,38.57
2023-01-19T18:23:12.018Z,37.98
2023-01-19T18:25:39.656Z,38.33
2023-01-19T18:28:07.156Z,39.01
2023-01-19T18:30:35.015Z,38.96
2023-01-19T18:33:01.742Z,38.80
2023-01-19T18:35:28.765Z,39.31
2023-01-19T18:37:56.906Z,39.01
2023-01-19T18:40:23.882Z,38.59
2023-01-19T18:42:50.847Z,39.48
2023-01-19T18:45:17.412Z,39.18
2023-01-19T18:47:44.066Z,37.90
2023-01-19T18:50:12.984Z,37.86
2023-01-19T18:52:40.202Z,37.50
2023-01-19T18:55:07.042Z,37.86
2023-01-19T18:57:35.562Z,38.13
2023-01-19T19:00:03.693Z,38.29
2023-01-19T19:02:30.339Z,38.92
2023-01-19T19:04:56.890Z,39.03
2023-01-19T19:07:23.546Z,38.57
2023-01-19T19:09:50.203Z,38.48
2023-01-19T19:12:16.727Z,38.75
2023-01-19T19:14:43.438Z,38.90
2023-01-19T19:17:09.957Z,39.13
2023-01-19T19:19:36.491Z,38.65
2023-01-19T19:22:03.425Z,38.79
2023-01-19T19:24:30.221Z,38.43
2023-01-19T19:26:56.941Z,38.87
2023-01-19T19:29:23.476Z,38.47
2023-01-19T19:31:50.053Z,38.00
2023-01-19T19:34:16.660Z,38.72
2023-01-19T19:36:43.179Z,39.00
2023-01-19T19:39:09.713Z,38.57
2023-01-19T19:41:38.245Z,38.69
2023-01-19T19:44:04.854Z,38.08
2023-01-19T19:46:31.492Z,38.57
2023-01-19T19:48:58.066Z,38.51
2023-01-19T19:51:27.546Z,38.86
2023-01-19T19:53:58.932Z,39.76
2023-01-19T19:56:28.760Z,39.96
2023-01-19T19:58:57.162Z,40.37
2023-01-19T20:01:28.460Z,40.44
2023-01-19T20:03:57.272Z,40.54
2023-01-19T20:06:25.053Z,40.32
2023-01-19T20:08:53.579Z,39.51
2023-01-19T20:11:23.457Z,39.36
2023-01-19T20:13:50.969Z,39.38
2023-01-19T20:16:19.718Z,40.31
2023-01-19T20:18:50.744Z,40.68
2023-01-19T20:21:20.579Z,41.09
2023-01-19T20:23:48.849Z,40.97
2023-01-19T20:26:18.647Z,40.90
2023-01-19T20:28:45.418Z,40.71
2023-01-19T20:31:16.513Z,39.94
2023-01-19T20:33:44.069Z,41.02
2023-01-19T20:36:11.560Z,41.51
2023-01-19T20:38:39.450Z,41.03
2023-01-19T20:41:07.775Z,40.78
2023-01-19T20:43:35.041Z,40.95
2023-01-19T20:46:01.816Z,41.37
2023-01-19T20:48:28.562Z,41.21
2023-01-19T20:51:00.040Z,42.31
2023-01-19T20:53:26.755Z,42.69
2023-01-19T20:55:53.331Z,42.32
2023-01-19T20:58:20.030Z,42.76
2023-01-19T21:00:46.727Z,43.17
2023-01-19T21:03:13.708Z,42.16
2023-01-19T21:05:40.644Z,42.39
2023-01-19T21:08:07.289Z,43.34
2023-01-19T21:10:33.817Z,43.43
2023-01-19T21:13:00.340Z,43.20
2023-01-19T21:15:26.877Z,42.97
2023-01-19T21:17:53.536Z,43.27
2023-01-19T21:20:20.195Z,43.03
2023-01-19T21:22:46.788Z,43.23
2023-01-19T21:25:13.613Z,43.49
2023-01-19T21:27:40.242Z,43.51
2023-01-19T21:30:07.334Z,43.35
2023-01-19T21:32:33.851Z,43.42
2023-01-19T21:35:00.462Z,43.86
2023-01-19T21:37:30.341Z,43.68
2023-01-19T21:39:57.480Z,44.16
2023-01-19T21:42:24.002Z,44.45
2023-01-19T21:44:50.527Z,44.42
2023-01-19T21:47:17.080Z,44.25
2023-01-19T21:49:43.922Z,43.84
2023-01-19T21:52:10.447Z,43.73
2023-01-19T21:54:37.000Z,43.80
2023-01-19T21:57:03.673Z,43.50
2023-01-19T21:59:30.179Z,43.95
2023-01-19T22:01:56.929Z,43.78
2023-01-19T22:04:23.514Z,44.25
2023-01-19T22:06:50.092Z,44.74
2023-01-19T22:09:16.734Z,44.04
2023-01-19T22:11:43.240Z,43.92
2023-01-19T22:14:11.335Z,43.48
2023-01-19T22:16:37.879Z,43.78
2023-01-19T22:19:07.237Z,43.93
2023-01-19T22:21:35.778Z,44.16
2023-01-19T22:24:04.108Z,45.01
2023-01-19T22:26:32.232Z,44.42
2023-01-19T22:29:00.293Z,44.99
2023-01-19T22:31:28.534Z,44.69
2023-01-19T22:33:55.775Z,44.50
2023-01-19T22:36:23.702Z,44.62
2023-01-19T22:39:01.873Z,44.97
2023-01-19T22:41:34.022Z,45.15
2023-01-19T22:44:03.425Z,45.05
2023-01-19T22:46:33.037Z,44.92
2023-01-19T22:49:00.225Z,44.37
2023-01-19T22:51:28.138Z,44.17
2023-01-19T22:53:54.862Z,44.52
2023-01-19T22:56:27.345Z,45.07
2023-01-19T22:58:54.065Z,44.84
2023-01-19T23:01:23.170Z,44.99
2023-01-19T23:03:50.160Z,44.36
2023-01-19T23:06:19.294Z,44.49
2023-01-19T23:08:46.034Z,43.53
2023-01-19T23:11:24.266Z,43.71
2023-01-19T23:13:50.915Z,44.04
2023-01-19T23:16:18.207Z,43.97
2023-01-19T23:18:45.518Z,44.19
2023-01-19T23:21:15.002Z,43.90
2023-01-19T23:23:42.686Z,44.42
2023-01-19T23:26:11.829Z,44.21
2023-01-19T23:28:39.475Z,44.36
2023-01-19T23:31:30.125Z,44.39
2023-01-19T23:33:59.943Z,44.94
2023-01-19T23:36:29.195Z,44.00
2023-01-19T23:38:58.312Z,44.35
2023-01-19T23:41:26.212Z,44.71
2023-01-19T23:43:52.778Z,44.26
2023-01-19T23:46:19.803Z,44.25
2023-01-19T23:48:46.670Z,44.66
2023-01-19T23:51:16.635Z,44.78
2023-01-19T23:53:43.499Z,44.45
2023-01-19T23:56:11.375Z,44.35
2023-01-19T23:58:38.710Z,43.82
